Deronda, Wisconsin
Current Conditions -  °F | °C
As of 2:55 AM on Saturday 01 Nov 2014 (Local Time) from KOEO Reporting Station
Clear Clear  
Wind Chill: 20°   Ceiling: Unl
Heat Index: 20°   Visibility: 10mi
Dew Point: 17°   Wind: 0mph
Humidity: 88%   Direction: NA
Pressure: 30.49"   Gusts: NA
Location:  45.3559°N, 92.3527°W
Report Text: KOEO 010755Z AUTO 00000KT 10SM CLR M07/M09 A3049 RMK AO2 T10691086
Loading
Personal Weather Stations






























Interactive Weather Map
Tropical Storm Tracking
New forecast layout! Learn more

10-Day Weather Forecast

Advertisements
Track Severe Weather on mobile